sensor_id;sensor_type;location;lat;lon;timestamp;P1;durP1;ratioP1;P2;durP2;ratioP2
7613;SDS011;3848;42.016;23.098;2022-07-17T00:00:36;5.23;;;4.70;;
7613;SDS011;3848;42.016;23.098;2022-07-17T00:03:05;5.40;;;4.00;;
7613;SDS011;3848;42.016;23.098;2022-07-17T00:05:32;6.43;;;4.43;;
7613;SDS011;3848;42.016;23.098;2022-07-17T00:07:59;6.37;;;4.50;;
7613;SDS011;3848;42.016;23.098;2022-07-17T00:10:26;7.70;;;4.37;;
7613;SDS011;3848;42.016;23.098;2022-07-17T00:12:53;6.17;;;4.00;;
7613;SDS011;3848;42.016;23.098;2022-07-17T00:15:21;6.87;;;4.10;;
7613;SDS011;3848;42.016;23.098;2022-07-17T00:17:48;12.40;;;4.30;;
7613;SDS011;3848;42.016;23.098;2022-07-17T00:20:15;6.53;;;4.60;;
7613;SDS011;3848;42.016;23.098;2022-07-17T00:22:42;8.90;;;4.30;;
7613;SDS011;3848;42.016;23.098;2022-07-17T00:25:09;5.63;;;4.50;;
7613;SDS011;3848;42.016;23.098;2022-07-17T00:27:36;5.50;;;4.10;;
7613;SDS011;3848;42.016;23.098;2022-07-17T00:30:04;9.47;;;4.27;;
7613;SDS011;3848;42.016;23.098;2022-07-17T00:32:34;6.67;;;4.37;;
7613;SDS011;3848;42.016;23.098;2022-07-17T00:35:01;6.13;;;4.20;;
7613;SDS011;3848;42.016;23.098;2022-07-17T00:37:28;6.13;;;4.23;;
7613;SDS011;3848;42.016;23.098;2022-07-17T00:39:55;5.03;;;4.50;;
7613;SDS011;3848;42.016;23.098;2022-07-17T00:42:22;4.63;;;4.07;;
7613;SDS011;3848;42.016;23.098;2022-07-17T00:44:49;5.63;;;4.30;;
7613;SDS011;3848;42.016;23.098;2022-07-17T00:47:16;4.97;;;4.47;;
7613;SDS011;3848;42.016;23.098;2022-07-17T00:49:47;4.57;;;4.13;;
7613;SDS011;3848;42.016;23.098;2022-07-17T00:52:15;5.60;;;4.30;;
7613;SDS011;3848;42.016;23.098;2022-07-17T00:54:44;5.27;;;4.10;;
7613;SDS011;3848;42.016;23.098;2022-07-17T00:57:13;5.00;;;4.30;;
7613;SDS011;3848;42.016;23.098;2022-07-17T00:59:40;5.13;;;4.20;;
7613;SDS011;3848;42.016;23.098;2022-07-17T01:02:09;6.03;;;4.20;;
7613;SDS011;3848;42.016;23.098;2022-07-17T01:04:37;6.80;;;4.70;;
7613;SDS011;3848;42.016;23.098;2022-07-17T01:07:06;7.60;;;4.23;;
7613;SDS011;3848;42.016;23.098;2022-07-17T01:09:34;4.90;;;4.30;;
7613;SDS011;3848;42.016;23.098;2022-07-17T01:12:00;6.73;;;4.67;;
7613;SDS011;3848;42.016;23.098;2022-07-17T01:14:27;6.33;;;4.43;;
7613;SDS011;3848;42.016;23.098;2022-07-17T01:16:54;5.27;;;4.43;;
7613;SDS011;3848;42.016;23.098;2022-07-17T01:19:21;5.33;;;4.10;;
7613;SDS011;3848;42.016;23.098;2022-07-17T01:21:50;8.73;;;4.47;;
7613;SDS011;3848;42.016;23.098;2022-07-17T01:24:17;4.47;;;4.07;;
7613;SDS011;3848;42.016;23.098;2022-07-17T01:26:45;5.67;;;4.83;;
7613;SDS011;3848;42.016;23.098;2022-07-17T01:29:14;6.00;;;4.60;;
7613;SDS011;3848;42.016;23.098;2022-07-17T01:31:42;6.93;;;4.63;;
7613;SDS011;3848;42.016;23.098;2022-07-17T01:34:10;5.50;;;4.30;;
7613;SDS011;3848;42.016;23.098;2022-07-17T01:36:38;6.17;;;4.60;;
7613;SDS011;3848;42.016;23.098;2022-07-17T01:39:07;7.47;;;4.73;;
7613;SDS011;3848;42.016;23.098;2022-07-17T01:41:34;12.10;;;4.97;;
7613;SDS011;3848;42.016;23.098;2022-07-17T01:44:01;7.13;;;4.70;;
7613;SDS011;3848;42.016;23.098;2022-07-17T01:46:28;7.63;;;4.17;;
7613;SDS011;3848;42.016;23.098;2022-07-17T01:48:55;5.77;;;4.37;;
7613;SDS011;3848;42.016;23.098;2022-07-17T01:51:22;10.20;;;4.23;;
7613;SDS011;3848;42.016;23.098;2022-07-17T01:53:49;4.80;;;3.93;;
7613;SDS011;3848;42.016;23.098;2022-07-17T01:56:17;5.30;;;4.57;;
7613;SDS011;3848;42.016;23.098;2022-07-17T01:58:44;6.73;;;4.80;;
7613;SDS011;3848;42.016;23.098;2022-07-17T02:01:11;6.97;;;4.30;;
7613;SDS011;3848;42.016;23.098;2022-07-17T02:03:37;6.07;;;4.40;;
7613;SDS011;3848;42.016;23.098;2022-07-17T02:06:04;6.90;;;4.63;;
7613;SDS011;3848;42.016;23.098;2022-07-17T02:08:31;4.90;;;4.37;;
7613;SDS011;3848;42.016;23.098;2022-07-17T02:10:58;5.73;;;5.10;;
7613;SDS011;3848;42.016;23.098;2022-07-17T02:13:26;15.60;;;4.90;;
7613;SDS011;3848;42.016;23.098;2022-07-17T02:15:53;7.47;;;4.70;;
7613;SDS011;3848;42.016;23.098;2022-07-17T02:18:20;7.57;;;5.17;;
7613;SDS011;3848;42.016;23.098;2022-07-17T02:20:47;8.63;;;4.87;;
7613;SDS011;3848;42.016;23.098;2022-07-17T02:23:15;7.93;;;4.50;;
7613;SDS011;3848;42.016;23.098;2022-07-17T02:25:42;5.57;;;4.10;;
7613;SDS011;3848;42.016;23.098;2022-07-17T02:28:09;8.13;;;5.10;;
7613;SDS011;3848;42.016;23.098;2022-07-17T02:30:37;10.47;;;5.40;;
7613;SDS011;3848;42.016;23.098;2022-07-17T02:33:04;9.93;;;5.03;;
7613;SDS011;3848;42.016;23.098;2022-07-17T02:35:32;7.37;;;5.30;;
7613;SDS011;3848;42.016;23.098;2022-07-17T02:37:59;7.03;;;4.50;;
7613;SDS011;3848;42.016;23.098;2022-07-17T02:40:26;7.07;;;4.90;;
7613;SDS011;3848;42.016;23.098;2022-07-17T02:42:53;6.70;;;5.10;;
7613;SDS011;3848;42.016;23.098;2022-07-17T02:45:20;9.27;;;4.87;;
7613;SDS011;3848;42.016;23.098;2022-07-17T02:47:51;9.13;;;4.87;;
7613;SDS011;3848;42.016;23.098;2022-07-17T02:50:19;7.33;;;4.90;;
7613;SDS011;3848;42.016;23.098;2022-07-17T02:52:47;8.23;;;5.03;;
7613;SDS011;3848;42.016;23.098;2022-07-17T02:55:14;6.13;;;5.17;;
7613;SDS011;3848;42.016;23.098;2022-07-17T02:57:41;10.33;;;5.23;;
7613;SDS011;3848;42.016;23.098;2022-07-17T03:00:09;6.37;;;4.80;;
7613;SDS011;3848;42.016;23.098;2022-07-17T03:02:37;6.43;;;5.30;;
7613;SDS011;3848;42.016;23.098;2022-07-17T03:05:06;6.17;;;5.10;;
7613;SDS011;3848;42.016;23.098;2022-07-17T03:07:33;11.10;;;5.23;;
7613;SDS011;3848;42.016;23.098;2022-07-17T03:10:01;6.20;;;4.87;;
7613;SDS011;3848;42.016;23.098;2022-07-17T03:12:28;6.07;;;4.73;;
7613;SDS011;3848;42.016;23.098;2022-07-17T03:14:55;5.90;;;4.73;;
7613;SDS011;3848;42.016;23.098;2022-07-17T03:17:22;8.93;;;4.97;;
7613;SDS011;3848;42.016;23.098;2022-07-17T03:19:49;13.47;;;5.67;;
7613;SDS011;3848;42.016;23.098;2022-07-17T03:22:17;9.27;;;4.53;;
7613;SDS011;3848;42.016;23.098;2022-07-17T03:24:44;7.53;;;5.03;;
7613;SDS011;3848;42.016;23.098;2022-07-17T03:27:11;5.30;;;4.80;;
7613;SDS011;3848;42.016;23.098;2022-07-17T03:29:38;6.67;;;4.53;;
7613;SDS011;3848;42.016;23.098;2022-07-17T03:32:05;4.43;;;4.03;;
7613;SDS011;3848;42.016;23.098;2022-07-17T03:34:32;6.63;;;4.67;;
7613;SDS011;3848;42.016;23.098;2022-07-17T03:36:59;6.10;;;4.80;;
7613;SDS011;3848;42.016;23.098;2022-07-17T03:39:27;5.17;;;4.50;;
7613;SDS011;3848;42.016;23.098;2022-07-17T03:41:54;7.83;;;4.80;;
7613;SDS011;3848;42.016;23.098;2022-07-17T03:44:21;6.60;;;4.93;;
7613;SDS011;3848;42.016;23.098;2022-07-17T03:46:48;10.80;;;4.87;;
7613;SDS011;3848;42.016;23.098;2022-07-17T03:49:15;8.27;;;4.90;;
7613;SDS011;3848;42.016;23.098;2022-07-17T03:51:42;5.73;;;4.67;;
7613;SDS011;3848;42.016;23.098;2022-07-17T03:54:09;8.70;;;4.90;;
7613;SDS011;3848;42.016;23.098;2022-07-17T03:56:37;7.87;;;5.47;;
7613;SDS011;3848;42.016;23.098;2022-07-17T03:59:04;9.30;;;5.20;;
7613;SDS011;3848;42.016;23.098;2022-07-17T04:01:31;9.30;;;5.63;;
7613;SDS011;3848;42.016;23.098;2022-07-17T04:03:58;10.73;;;5.60;;
7613;SDS011;3848;42.016;23.098;2022-07-17T04:06:25;7.83;;;4.97;;
7613;SDS011;3848;42.016;23.098;2022-07-17T04:08:52;9.03;;;5.33;;
7613;SDS011;3848;42.016;23.098;2022-07-17T04:11:18;9.50;;;5.17;;
7613;SDS011;3848;42.016;23.098;2022-07-17T04:13:47;10.30;;;5.40;;
7613;SDS011;3848;42.016;23.098;2022-07-17T04:16:15;8.63;;;4.90;;
7613;SDS011;3848;42.016;23.098;2022-07-17T04:18:41;9.13;;;4.57;;
7613;SDS011;3848;42.016;23.098;2022-07-17T04:21:09;5.73;;;4.63;;
7613;SDS011;3848;42.016;23.098;2022-07-17T04:23:36;5.43;;;4.93;;
7613;SDS011;3848;42.016;23.098;2022-07-17T04:26:03;5.53;;;4.50;;
7613;SDS011;3848;42.016;23.098;2022-07-17T04:28:32;7.83;;;4.57;;
7613;SDS011;3848;42.016;23.098;2022-07-17T04:31:00;6.57;;;4.73;;
7613;SDS011;3848;42.016;23.098;2022-07-17T04:33:27;5.87;;;4.63;;
7613;SDS011;3848;42.016;23.098;2022-07-17T04:35:54;7.13;;;5.20;;
7613;SDS011;3848;42.016;23.098;2022-07-17T04:38:21;7.73;;;4.90;;
7613;SDS011;3848;42.016;23.098;2022-07-17T04:40:48;12.00;;;6.37;;
7613;SDS011;3848;42.016;23.098;2022-07-17T04:43:15;9.20;;;5.73;;
7613;SDS011;3848;42.016;23.098;2022-07-17T04:45:42;10.47;;;5.67;;
7613;SDS011;3848;42.016;23.098;2022-07-17T04:48:10;11.37;;;5.10;;
7613;SDS011;3848;42.016;23.098;2022-07-17T04:50:37;9.10;;;5.30;;
7613;SDS011;3848;42.016;23.098;2022-07-17T04:53:03;7.70;;;5.10;;
7613;SDS011;3848;42.016;23.098;2022-07-17T04:55:30;9.90;;;5.67;;
7613;SDS011;3848;42.016;23.098;2022-07-17T04:57:57;10.30;;;5.17;;
7613;SDS011;3848;42.016;23.098;2022-07-17T05:00:24;13.87;;;6.37;;
7613;SDS011;3848;42.016;23.098;2022-07-17T05:02:52;10.00;;;5.80;;
7613;SDS011;3848;42.016;23.098;2022-07-17T05:05:20;11.00;;;5.87;;
7613;SDS011;3848;42.016;23.098;2022-07-17T05:07:47;13.20;;;5.73;;
7613;SDS011;3848;42.016;23.098;2022-07-17T05:10:14;10.77;;;5.83;;
7613;SDS011;3848;42.016;23.098;2022-07-17T05:12:41;6.60;;;5.43;;
7613;SDS011;3848;42.016;23.098;2022-07-17T05:15:08;9.47;;;6.07;;
7613;SDS011;3848;42.016;23.098;2022-07-17T05:17:35;9.83;;;5.87;;
7613;SDS011;3848;42.016;23.098;2022-07-17T05:20:02;10.90;;;6.57;;
7613;SDS011;3848;42.016;23.098;2022-07-17T05:22:31;17.90;;;6.17;;
7613;SDS011;3848;42.016;23.098;2022-07-17T05:24:58;12.40;;;6.47;;
7613;SDS011;3848;42.016;23.098;2022-07-17T05:27:25;9.13;;;5.37;;
7613;SDS011;3848;42.016;23.098;2022-07-17T05:29:52;10.20;;;6.37;;
7613;SDS011;3848;42.016;23.098;2022-07-17T05:32:19;21.10;;;6.63;;
7613;SDS011;3848;42.016;23.098;2022-07-17T05:34:46;19.57;;;6.43;;
7613;SDS011;3848;42.016;23.098;2022-07-17T05:37:12;16.37;;;6.73;;
7613;SDS011;3848;42.016;23.098;2022-07-17T05:39:41;10.40;;;6.70;;
7613;SDS011;3848;42.016;23.098;2022-07-17T05:42:07;21.03;;;8.30;;
7613;SDS011;3848;42.016;23.098;2022-07-17T05:44:34;15.33;;;7.47;;
7613;SDS011;3848;42.016;23.098;2022-07-17T05:47:01;15.40;;;6.30;;
7613;SDS011;3848;42.016;23.098;2022-07-17T05:49:28;14.40;;;6.40;;
7613;SDS011;3848;42.016;23.098;2022-07-17T05:51:55;8.90;;;6.50;;
7613;SDS011;3848;42.016;23.098;2022-07-17T05:54:22;14.73;;;6.03;;
7613;SDS011;3848;42.016;23.098;2022-07-17T05:56:50;10.17;;;5.80;;
7613;SDS011;3848;42.016;23.098;2022-07-17T05:59:17;20.67;;;6.63;;
7613;SDS011;3848;42.016;23.098;2022-07-17T06:01:44;16.33;;;5.80;;
7613;SDS011;3848;42.016;23.098;2022-07-17T06:04:11;17.73;;;6.70;;
7613;SDS011;3848;42.016;23.098;2022-07-17T06:06:37;17.53;;;6.80;;
7613;SDS011;3848;42.016;23.098;2022-07-17T06:09:04;16.13;;;6.63;;
7613;SDS011;3848;42.016;23.098;2022-07-17T06:11:31;15.43;;;6.33;;
7613;SDS011;3848;42.016;23.098;2022-07-17T06:13:59;13.47;;;6.00;;
7613;SDS011;3848;42.016;23.098;2022-07-17T06:16:27;14.70;;;5.80;;
7613;SDS011;3848;42.016;23.098;2022-07-17T06:18:54;13.20;;;6.00;;
7613;SDS011;3848;42.016;23.098;2022-07-17T06:21:20;8.63;;;4.57;;
7613;SDS011;3848;42.016;23.098;2022-07-17T06:23:47;11.67;;;4.90;;
7613;SDS011;3848;42.016;23.098;2022-07-17T06:26:14;12.43;;;4.77;;
7613;SDS011;3848;42.016;23.098;2022-07-17T06:28:41;11.40;;;4.90;;
7613;SDS011;3848;42.016;23.098;2022-07-17T06:31:09;8.03;;;4.60;;
7613;SDS011;3848;42.016;23.098;2022-07-17T06:33:36;8.93;;;4.60;;
7613;SDS011;3848;42.016;23.098;2022-07-17T06:36:03;8.47;;;4.80;;
7613;SDS011;3848;42.016;23.098;2022-07-17T06:38:31;11.37;;;4.50;;
7613;SDS011;3848;42.016;23.098;2022-07-17T06:40:59;9.57;;;4.20;;
7613;SDS011;3848;42.016;23.098;2022-07-17T06:43:26;11.63;;;4.20;;
7613;SDS011;3848;42.016;23.098;2022-07-17T06:45:53;8.20;;;4.50;;
7613;SDS011;3848;42.016;23.098;2022-07-17T06:48:22;10.30;;;3.93;;
7613;SDS011;3848;42.016;23.098;2022-07-17T06:50:49;10.60;;;4.53;;
7613;SDS011;3848;42.016;23.098;2022-07-17T06:53:16;6.93;;;4.40;;
7613;SDS011;3848;42.016;23.098;2022-07-17T06:55:43;11.13;;;4.20;;
7613;SDS011;3848;42.016;23.098;2022-07-17T06:58:09;10.73;;;4.70;;
7613;SDS011;3848;42.016;23.098;2022-07-17T07:00:37;7.60;;;4.00;;
7613;SDS011;3848;42.016;23.098;2022-07-17T07:03:04;10.93;;;4.23;;
7613;SDS011;3848;42.016;23.098;2022-07-17T07:05:32;8.63;;;3.83;;
7613;SDS011;3848;42.016;23.098;2022-07-17T07:07:59;7.43;;;3.50;;
7613;SDS011;3848;42.016;23.098;2022-07-17T07:10:27;5.70;;;2.93;;
7613;SDS011;3848;42.016;23.098;2022-07-17T07:12:54;9.80;;;3.80;;
7613;SDS011;3848;42.016;23.098;2022-07-17T07:15:21;14.03;;;3.57;;
7613;SDS011;3848;42.016;23.098;2022-07-17T07:17:49;8.37;;;3.20;;
7613;SDS011;3848;42.016;23.098;2022-07-17T07:20:15;6.77;;;2.97;;
7613;SDS011;3848;42.016;23.098;2022-07-17T07:22:44;5.87;;;2.93;;
7613;SDS011;3848;42.016;23.098;2022-07-17T07:25:10;12.73;;;3.40;;
7613;SDS011;3848;42.016;23.098;2022-07-17T07:27:37;7.13;;;2.93;;
7613;SDS011;3848;42.016;23.098;2022-07-17T07:30:05;7.97;;;3.00;;
7613;SDS011;3848;42.016;23.098;2022-07-17T07:32:34;12.23;;;3.57;;
7613;SDS011;3848;42.016;23.098;2022-07-17T07:35:02;7.17;;;3.00;;
7613;SDS011;3848;42.016;23.098;2022-07-17T07:37:29;8.40;;;2.97;;
7613;SDS011;3848;42.016;23.098;2022-07-17T07:39:57;6.33;;;2.93;;
7613;SDS011;3848;42.016;23.098;2022-07-17T07:42:24;5.57;;;3.20;;
7613;SDS011;3848;42.016;23.098;2022-07-17T07:44:51;7.80;;;3.30;;
7613;SDS011;3848;42.016;23.098;2022-07-17T07:47:18;7.13;;;3.13;;
7613;SDS011;3848;42.016;23.098;2022-07-17T07:49:45;6.77;;;2.77;;
7613;SDS011;3848;42.016;23.098;2022-07-17T07:52:12;10.00;;;2.90;;
7613;SDS011;3848;42.016;23.098;2022-07-17T07:54:39;4.23;;;2.43;;
7613;SDS011;3848;42.016;23.098;2022-07-17T07:57:07;11.97;;;3.20;;
7613;SDS011;3848;42.016;23.098;2022-07-17T07:59:34;7.17;;;2.80;;
7613;SDS011;3848;42.016;23.098;2022-07-17T08:02:02;7.40;;;2.80;;
7613;SDS011;3848;42.016;23.098;2022-07-17T08:04:28;6.50;;;3.03;;
7613;SDS011;3848;42.016;23.098;2022-07-17T08:06:55;5.77;;;2.90;;
7613;SDS011;3848;42.016;23.098;2022-07-17T08:09:23;4.60;;;2.47;;
7613;SDS011;3848;42.016;23.098;2022-07-17T08:11:50;6.57;;;2.37;;
7613;SDS011;3848;42.016;23.098;2022-07-17T08:14:18;10.00;;;2.73;;
7613;SDS011;3848;42.016;23.098;2022-07-17T08:16:45;7.67;;;2.70;;
7613;SDS011;3848;42.016;23.098;2022-07-17T08:19:11;7.80;;;2.67;;
7613;SDS011;3848;42.016;23.098;2022-07-17T08:21:38;5.00;;;2.80;;
7613;SDS011;3848;42.016;23.098;2022-07-17T08:24:05;8.70;;;2.67;;
7613;SDS011;3848;42.016;23.098;2022-07-17T08:26:32;6.90;;;2.90;;
7613;SDS011;3848;42.016;23.098;2022-07-17T08:28:59;5.50;;;2.23;;
7613;SDS011;3848;42.016;23.098;2022-07-17T08:31:27;8.77;;;3.37;;
7613;SDS011;3848;42.016;23.098;2022-07-17T08:33:54;9.93;;;2.83;;
7613;SDS011;3848;42.016;23.098;2022-07-17T08:36:21;4.60;;;2.70;;
7613;SDS011;3848;42.016;23.098;2022-07-17T08:38:48;8.60;;;3.30;;
7613;SDS011;3848;42.016;23.098;2022-07-17T08:41:15;9.87;;;3.10;;
7613;SDS011;3848;42.016;23.098;2022-07-17T08:43:43;8.80;;;3.20;;
7613;SDS011;3848;42.016;23.098;2022-07-17T08:46:13;7.10;;;3.20;;
7613;SDS011;3848;42.016;23.098;2022-07-17T08:48:44;3.87;;;2.37;;
7613;SDS011;3848;42.016;23.098;2022-07-17T08:51:12;8.27;;;3.00;;
7613;SDS011;3848;42.016;23.098;2022-07-17T08:53:41;7.97;;;2.57;;
7613;SDS011;3848;42.016;23.098;2022-07-17T08:56:09;7.57;;;3.00;;
7613;SDS011;3848;42.016;23.098;2022-07-17T08:58:36;7.07;;;3.00;;
7613;SDS011;3848;42.016;23.098;2022-07-17T09:01:03;4.90;;;2.90;;
7613;SDS011;3848;42.016;23.098;2022-07-17T09:03:30;8.10;;;2.90;;
7613;SDS011;3848;42.016;23.098;2022-07-17T09:05:58;4.03;;;2.53;;
7613;SDS011;3848;42.016;23.098;2022-07-17T09:08:25;6.83;;;2.50;;
7613;SDS011;3848;42.016;23.098;2022-07-17T09:10:54;12.23;;;2.90;;
7613;SDS011;3848;42.016;23.098;2022-07-17T09:13:22;4.27;;;2.90;;
7613;SDS011;3848;42.016;23.098;2022-07-17T09:15:51;6.67;;;2.10;;
7613;SDS011;3848;42.016;23.098;2022-07-17T09:18:19;2.57;;;1.70;;
7613;SDS011;3848;42.016;23.098;2022-07-17T09:20:48;7.50;;;2.40;;
7613;SDS011;3848;42.016;23.098;2022-07-17T09:23:18;8.80;;;2.23;;
7613;SDS011;3848;42.016;23.098;2022-07-17T09:25:48;5.97;;;2.27;;
7613;SDS011;3848;42.016;23.098;2022-07-17T09:28:17;6.00;;;2.50;;
7613;SDS011;3848;42.016;23.098;2022-07-17T09:30:45;3.57;;;2.30;;
7613;SDS011;3848;42.016;23.098;2022-07-17T09:33:15;6.60;;;2.70;;
7613;SDS011;3848;42.016;23.098;2022-07-17T09:35:44;5.23;;;2.33;;
7613;SDS011;3848;42.016;23.098;2022-07-17T09:38:12;3.57;;;2.10;;
7613;SDS011;3848;42.016;23.098;2022-07-17T09:40:41;4.73;;;1.80;;
7613;SDS011;3848;42.016;23.098;2022-07-17T09:43:35;13.20;;;2.50;;
7613;SDS011;3848;42.016;23.098;2022-07-17T09:46:04;4.53;;;2.10;;
7613;SDS011;3848;42.016;23.098;2022-07-17T09:48:33;3.07;;;2.30;;
7613;SDS011;3848;42.016;23.098;2022-07-17T09:51:01;7.03;;;2.60;;
7613;SDS011;3848;42.016;23.098;2022-07-17T09:53:29;8.90;;;2.70;;
7613;SDS011;3848;42.016;23.098;2022-07-17T09:56:00;6.90;;;2.63;;
7613;SDS011;3848;42.016;23.098;2022-07-17T09:58:28;6.37;;;2.43;;
7613;SDS011;3848;42.016;23.098;2022-07-17T10:00:58;4.10;;;2.17;;
7613;SDS011;3848;42.016;23.098;2022-07-17T10:03:26;3.07;;;2.30;;
7613;SDS011;3848;42.016;23.098;2022-07-17T10:05:53;4.03;;;2.13;;
7613;SDS011;3848;42.016;23.098;2022-07-17T10:08:21;7.30;;;2.33;;
7613;SDS011;3848;42.016;23.098;2022-07-17T10:10:48;12.53;;;2.53;;
7613;SDS011;3848;42.016;23.098;2022-07-17T10:13:17;32.23;;;4.07;;
7613;SDS011;3848;42.016;23.098;2022-07-17T10:15:44;6.35;;;2.20;;
7613;SDS011;3848;42.016;23.098;2022-07-17T10:18:12;6.53;;;2.30;;
7613;SDS011;3848;42.016;23.098;2022-07-17T10:20:38;4.70;;;2.10;;
7613;SDS011;3848;42.016;23.098;2022-07-17T10:23:12;5.00;;;1.90;;
7613;SDS011;3848;42.016;23.098;2022-07-17T10:25:39;4.40;;;2.30;;
7613;SDS011;3848;42.016;23.098;2022-07-17T10:28:07;7.20;;;2.60;;
7613;SDS011;3848;42.016;23.098;2022-07-17T10:30:40;3.30;;;1.70;;
7613;SDS011;3848;42.016;23.098;2022-07-17T10:33:08;6.30;;;2.38;;
7613;SDS011;3848;42.016;23.098;2022-07-17T10:35:42;7.68;;;3.08;;
7613;SDS011;3848;42.016;23.098;2022-07-17T10:38:12;7.40;;;2.33;;
7613;SDS011;3848;42.016;23.098;2022-07-17T10:40:40;3.90;;;2.15;;
7613;SDS011;3848;42.016;23.098;2022-07-17T10:43:07;8.40;;;2.78;;
7613;SDS011;3848;42.016;23.098;2022-07-17T10:45:37;9.52;;;2.55;;
7613;SDS011;3848;42.016;23.098;2022-07-17T10:48:08;2.65;;;2.10;;
7613;SDS011;3848;42.016;23.098;2022-07-17T10:50:36;6.97;;;1.90;;
7613;SDS011;3848;42.016;23.098;2022-07-17T10:53:12;3.50;;;2.22;;
7613;SDS011;3848;42.016;23.098;2022-07-17T10:55:42;3.63;;;1.60;;
7613;SDS011;3848;42.016;23.098;2022-07-17T11:00:59;4.25;;;2.15;;
7613;SDS011;3848;42.016;23.098;2022-07-17T11:03:28;2.40;;;2.08;;
7613;SDS011;3848;42.016;23.098;2022-07-17T11:06:05;3.33;;;2.40;;
7613;SDS011;3848;42.016;23.098;2022-07-17T11:08:39;6.15;;;2.05;;
7613;SDS011;3848;42.016;23.098;2022-07-17T11:11:07;10.25;;;2.45;;
7613;SDS011;3848;42.016;23.098;2022-07-17T11:13:34;7.75;;;2.53;;
7613;SDS011;3848;42.016;23.098;2022-07-17T11:16:03;10.27;;;2.25;;
7613;SDS011;3848;42.016;23.098;2022-07-17T11:18:31;5.70;;;2.25;;
7613;SDS011;3848;42.016;23.098;2022-07-17T11:20:59;4.68;;;2.38;;
7613;SDS011;3848;42.016;23.098;2022-07-17T11:23:27;4.53;;;2.03;;
7613;SDS011;3848;42.016;23.098;2022-07-17T11:25:57;7.50;;;2.20;;
7613;SDS011;3848;42.016;23.098;2022-07-17T11:28:29;3.53;;;2.08;;
7613;SDS011;3848;42.016;23.098;2022-07-17T11:31:03;3.67;;;1.90;;
7613;SDS011;3848;42.016;23.098;2022-07-17T11:33:48;4.85;;;1.85;;
7613;SDS011;3848;42.016;23.098;2022-07-17T11:36:23;12.10;;;2.25;;
7613;SDS011;3848;42.016;23.098;2022-07-17T11:38:53;5.93;;;2.30;;
7613;SDS011;3848;42.016;23.098;2022-07-17T11:41:23;2.10;;;1.80;;
7613;SDS011;3848;42.016;23.098;2022-07-17T11:43:57;5.78;;;2.13;;
7613;SDS011;3848;42.016;23.098;2022-07-17T11:46:26;4.40;;;1.98;;
7613;SDS011;3848;42.016;23.098;2022-07-17T11:48:54;6.88;;;2.10;;
7613;SDS011;3848;42.016;23.098;2022-07-17T11:51:21;7.25;;;2.38;;
7613;SDS011;3848;42.016;23.098;2022-07-17T11:54:02;3.78;;;2.03;;
7613;SDS011;3848;42.016;23.098;2022-07-17T11:56:30;6.53;;;1.83;;
7613;SDS011;3848;42.016;23.098;2022-07-17T11:58:57;5.40;;;2.10;;
7613;SDS011;3848;42.016;23.098;2022-07-17T12:01:27;3.80;;;2.15;;
7613;SDS011;3848;42.016;23.098;2022-07-17T12:03:56;7.05;;;2.22;;
7613;SDS011;3848;42.016;23.098;2022-07-17T12:06:24;8.18;;;2.05;;
7613;SDS011;3848;42.016;23.098;2022-07-17T12:08:52;15.10;;;2.25;;
7613;SDS011;3848;42.016;23.098;2022-07-17T12:11:19;3.83;;;1.80;;
7613;SDS011;3848;42.016;23.098;2022-07-17T12:13:46;3.80;;;2.25;;
7613;SDS011;3848;42.016;23.098;2022-07-17T12:16:18;3.53;;;1.90;;
7613;SDS011;3848;42.016;23.098;2022-07-17T12:18:56;3.42;;;2.03;;
7613;SDS011;3848;42.016;23.098;2022-07-17T12:21:29;5.00;;;1.83;;
7613;SDS011;3848;42.016;23.098;2022-07-17T12:23:57;5.47;;;2.10;;
7613;SDS011;3848;42.016;23.098;2022-07-17T12:26:25;3.40;;;1.80;;
7613;SDS011;3848;42.016;23.098;2022-07-17T12:28:52;3.70;;;2.10;;
7613;SDS011;3848;42.016;23.098;2022-07-17T12:31:20;5.15;;;2.20;;
7613;SDS011;3848;42.016;23.098;2022-07-17T12:33:49;6.28;;;2.30;;
7613;SDS011;3848;42.016;23.098;2022-07-17T12:36:18;4.20;;;1.55;;
7613;SDS011;3848;42.016;23.098;2022-07-17T12:38:46;5.68;;;2.47;;
7613;SDS011;3848;42.016;23.098;2022-07-17T12:41:13;5.32;;;2.75;;
7613;SDS011;3848;42.016;23.098;2022-07-17T12:43:40;9.88;;;2.40;;
7613;SDS011;3848;42.016;23.098;2022-07-17T12:46:07;6.82;;;2.03;;
7613;SDS011;3848;42.016;23.098;2022-07-17T12:48:34;3.28;;;1.90;;
7613;SDS011;3848;42.016;23.098;2022-07-17T12:51:04;13.25;;;2.95;;
7613;SDS011;3848;42.016;23.098;2022-07-17T12:53:32;7.95;;;2.60;;
7613;SDS011;3848;42.016;23.098;2022-07-17T12:56:00;6.28;;;2.75;;
7613;SDS011;3848;42.016;23.098;2022-07-17T12:58:27;9.95;;;2.60;;
7613;SDS011;3848;42.016;23.098;2022-07-17T13:00:54;5.63;;;2.30;;
7613;SDS011;3848;42.016;23.098;2022-07-17T13:03:21;3.63;;;2.03;;
7613;SDS011;3848;42.016;23.098;2022-07-17T13:05:48;4.45;;;2.50;;
7613;SDS011;3848;42.016;23.098;2022-07-17T13:08:15;2.95;;;2.03;;
7613;SDS011;3848;42.016;23.098;2022-07-17T13:10:43;7.55;;;2.05;;
7613;SDS011;3848;42.016;23.098;2022-07-17T13:13:10;4.32;;;1.90;;
7613;SDS011;3848;42.016;23.098;2022-07-17T13:15:37;2.78;;;2.05;;
7613;SDS011;3848;42.016;23.098;2022-07-17T13:18:04;4.57;;;2.58;;
7613;SDS011;3848;42.016;23.098;2022-07-17T13:20:31;6.75;;;2.30;;
7613;SDS011;3848;42.016;23.098;2022-07-17T13:22:58;4.45;;;1.90;;
7613;SDS011;3848;42.016;23.098;2022-07-17T13:25:25;3.80;;;2.35;;
7613;SDS011;3848;42.016;23.098;2022-07-17T13:27:53;4.28;;;2.00;;
7613;SDS011;3848;42.016;23.098;2022-07-17T13:30:20;2.67;;;1.65;;
7613;SDS011;3848;42.016;23.098;2022-07-17T13:32:46;2.17;;;2.03;;
7613;SDS011;3848;42.016;23.098;2022-07-17T13:35:13;2.13;;;1.90;;
7613;SDS011;3848;42.016;23.098;2022-07-17T13:37:42;5.75;;;2.30;;
7613;SDS011;3848;42.016;23.098;2022-07-17T13:40:10;3.45;;;2.15;;
7613;SDS011;3848;42.016;23.098;2022-07-17T13:42:37;8.50;;;2.15;;
7613;SDS011;3848;42.016;23.098;2022-07-17T13:45:06;4.10;;;2.38;;
7613;SDS011;3848;42.016;23.098;2022-07-17T13:47:34;5.70;;;2.15;;
7613;SDS011;3848;42.016;23.098;2022-07-17T13:50:01;5.57;;;2.30;;
7613;SDS011;3848;42.016;23.098;2022-07-17T13:52:29;6.90;;;2.38;;
7613;SDS011;3848;42.016;23.098;2022-07-17T13:54:56;4.68;;;2.08;;
7613;SDS011;3848;42.016;23.098;2022-07-17T13:57:23;4.00;;;2.22;;
7613;SDS011;3848;42.016;23.098;2022-07-17T13:59:50;4.22;;;1.77;;
7613;SDS011;3848;42.016;23.098;2022-07-17T14:02:18;5.68;;;1.70;;
7613;SDS011;3848;42.016;23.098;2022-07-17T14:04:46;4.60;;;2.00;;
7613;SDS011;3848;42.016;23.098;2022-07-17T14:07:12;4.07;;;2.53;;
7613;SDS011;3848;42.016;23.098;2022-07-17T14:09:39;8.75;;;2.50;;
7613;SDS011;3848;42.016;23.098;2022-07-17T14:12:06;6.68;;;2.17;;
7613;SDS011;3848;42.016;23.098;2022-07-17T14:14:34;3.45;;;2.03;;
7613;SDS011;3848;42.016;23.098;2022-07-17T14:17:01;2.22;;;1.90;;
7613;SDS011;3848;42.016;23.098;2022-07-17T14:19:29;2.65;;;1.90;;
7613;SDS011;3848;42.016;23.098;2022-07-17T14:21:56;2.25;;;2.00;;
7613;SDS011;3848;42.016;23.098;2022-07-17T14:24:23;9.30;;;1.92;;
7613;SDS011;3848;42.016;23.098;2022-07-17T14:26:50;4.15;;;2.00;;
7613;SDS011;3848;42.016;23.098;2022-07-17T14:29:17;4.40;;;2.50;;
7613;SDS011;3848;42.016;23.098;2022-07-17T14:31:44;3.60;;;1.95;;
7613;SDS011;3848;42.016;23.098;2022-07-17T14:34:11;5.90;;;2.00;;
7613;SDS011;3848;42.016;23.098;2022-07-17T14:36:39;11.52;;;2.58;;
7613;SDS011;3848;42.016;23.098;2022-07-17T14:39:06;5.47;;;2.40;;
7613;SDS011;3848;42.016;23.098;2022-07-17T14:41:33;4.45;;;2.10;;
7613;SDS011;3848;42.016;23.098;2022-07-17T14:44:00;2.47;;;1.75;;
7613;SDS011;3848;42.016;23.098;2022-07-17T14:46:27;2.58;;;1.55;;
7613;SDS011;3848;42.016;23.098;2022-07-17T14:48:54;2.42;;;2.20;;
7613;SDS011;3848;42.016;23.098;2022-07-17T14:51:21;2.42;;;2.22;;
7613;SDS011;3848;42.016;23.098;2022-07-17T14:53:49;3.88;;;2.00;;
7613;SDS011;3848;42.016;23.098;2022-07-17T14:56:16;6.45;;;2.10;;
7613;SDS011;3848;42.016;23.098;2022-07-17T14:58:43;2.40;;;1.70;;
7613;SDS011;3848;42.016;23.098;2022-07-17T15:01:10;3.60;;;1.83;;
7613;SDS011;3848;42.016;23.098;2022-07-17T15:03:36;2.00;;;1.58;;